Time;durP1;ratioP1;P1;durP2;ratioP2;P2;SDS_P1;SDS_P2;PMS_P1;PMS_P2;Temp;Humidity;BMP_temperature;BMP_pressure;BME280_temperature;BME280_humidity;BME280_pressure;Samples;Min_cycle;Max_cycle;Signal;HPM_P1;HPM_P2
2021/12/06 00:01:19;;;;;;;;;;;23.40;55.00;;;;;;5076126;28;1005;-29
2021/12/06 00:03:48;;;;;;;;;;;23.40;55.00;;;;;;5076151;28;1019;-30
2021/12/06 00:06:17;;;;;;;;;;;23.40;55.00;;;;;;5076702;28;1007;-29
2021/12/06 00:08:44;;;;;;;;;;;23.40;55.00;;;;;;5075868;28;1051;-29
2021/12/06 00:11:11;;;;;;;;;;;23.40;55.10;;;;;;5075747;28;992;-29
2021/12/06 00:13:39;;;;;;;;;;;23.40;55.00;;;;;;5076853;28;1902;-29
2021/12/06 00:16:09;;;;;;;;;;;23.30;55.00;;;;;;5076583;28;924;-29
2021/12/06 00:18:36;;;;;;;;;;;23.30;55.10;;;;;;5076400;28;897;-31
2021/12/06 00:21:03;;;;;;;;;;;23.30;55.10;;;;;;5076696;28;1043;-31
2021/12/06 00:23:32;;;;;;;;;;;23.30;55.00;;;;;;5076102;28;1097;-31
2021/12/06 00:25:59;;;;;;;;;;;23.30;55.20;;;;;;5075898;28;1030;-29
2021/12/06 00:28:26;;;;;;;;;;;23.30;55.30;;;;;;5075999;28;997;-31
2021/12/06 00:30:53;;;;;;;;;;;23.30;55.20;;;;;;5075136;28;873;-29
2021/12/06 00:33:20;;;;;;;;;;;23.30;55.10;;;;;;5076614;28;1967;-29
2021/12/06 00:35:47;;;;;;;;;;;23.30;55.20;;;;;;5077628;28;868;-30
2021/12/06 00:38:13;;;;;;;;;;;23.20;55.20;;;;;;5077099;28;1000;-29
2021/12/06 00:40:43;;;;;;;;;;;23.30;55.10;;;;;;5077990;28;953;-29
2021/12/06 00:43:09;;;;;;;;;;;23.20;55.20;;;;;;5078231;28;944;-31
2021/12/06 00:45:37;;;;;;;;;;;23.20;55.20;;;;;;5078138;28;945;-31
2021/12/06 00:48:04;;;;;;;;;;;23.10;55.20;;;;;;5078549;28;1105;-29
2021/12/06 00:50:32;;;;;;;;;;;23.10;55.20;;;;;;5078212;28;896;-31
2021/12/06 00:52:59;;;;;;;;;;;23.10;55.30;;;;;;5077949;28;1906;-30
2021/12/06 00:55:26;;;;;;;;;;;23.00;55.50;;;;;;5076949;28;921;-31
2021/12/06 00:57:54;;;;;;;;;;;23.00;55.40;;;;;;5077644;28;980;-32
2021/12/06 01:00:22;;;;;;;;;;;23.00;55.40;;;;;;5078027;28;1024;-31
2021/12/06 01:02:49;;;;;;;;;;;23.00;55.40;;;;;;5079453;28;1009;-29
2021/12/06 01:05:16;;;;;;;;;;;23.00;55.40;;;;;;5078026;28;989;-29
2021/12/06 01:07:43;;;;;;;;;;;23.00;55.50;;;;;;5078597;28;1066;-29
2021/12/06 01:10:11;;;;;;;;;;;23.00;55.40;;;;;;5077878;28;937;-31
2021/12/06 01:12:38;;;;;;;;;;;23.00;55.40;;;;;;5077293;28;948;-29
2021/12/06 01:15:06;;;;;;;;;;;23.00;55.40;;;;;;5076799;28;1905;-29
2021/12/06 01:17:33;;;;;;;;;;;23.00;55.30;;;;;;5076925;28;964;-29
2021/12/06 01:20:00;;;;;;;;;;;23.00;55.30;;;;;;5076106;28;984;-31
2021/12/06 01:22:32;;;;;;;;;;;22.90;55.40;;;;;;5075901;28;991;-31
2021/12/06 01:25:03;;;;;;;;;;;22.90;55.50;;;;;;5076022;28;980;-29
2021/12/06 01:27:46;;;;;;;;;;;22.90;55.50;;;;;;5075467;28;1008;-31
2021/12/06 01:33:33;;;;;;;;;;;22.90;55.50;;;;;;5061191;28;1624;-29
2021/12/06 01:41:30;;;;;;;;;;;22.90;55.30;;;;;;5077929;28;886;-30
2021/12/06 01:44:11;;;;;;;;;;;22.90;55.30;;;;;;5078235;28;988;-29
2021/12/06 01:46:41;;;;;;;;;;;22.90;55.40;;;;;;5077714;28;999;-29
2021/12/06 01:49:09;;;;;;;;;;;22.90;55.40;;;;;;5078407;28;1023;-29
2021/12/06 01:51:36;;;;;;;;;;;22.90;55.20;;;;;;5077997;28;977;-29
2021/12/06 01:54:04;;;;;;;;;;;22.90;55.30;;;;;;5078206;28;1910;-30
2021/12/06 01:56:30;;;;;;;;;;;22.90;55.30;;;;;;5077656;28;981;-30
2021/12/06 01:58:57;;;;;;;;;;;22.90;55.20;;;;;;5078215;28;988;-29
2021/12/06 02:01:24;;;;;;;;;;;22.80;55.30;;;;;;5077868;28;1214;-31
2021/12/06 02:03:52;;;;;;;;;;;22.90;55.20;;;;;;5078208;28;940;-31
2021/12/06 02:06:19;;;;;;;;;;;22.90;55.10;;;;;;5077995;28;992;-30
2021/12/06 02:08:46;;;;;;;;;;;22.80;55.20;;;;;;5077759;28;1059;-32
2021/12/06 02:11:13;;;;;;;;;;;22.80;55.20;;;;;;5079044;28;1015;-29
2021/12/06 02:13:46;;;;;;;;;;;22.80;55.20;;;;;;5079710;28;1905;-29
2021/12/06 02:16:14;;;;;;;;;;;22.80;55.20;;;;;;5080208;28;909;-29
2021/12/06 02:18:46;;;;;;;;;;;22.80;55.00;;;;;;5080222;28;1000;-30
2021/12/06 02:21:17;;;;;;;;;;;22.80;55.10;;;;;;5079993;28;944;-31
2021/12/06 02:23:44;;;;;;;;;;;22.80;55.20;;;;;;5079882;28;1028;-30
2021/12/06 02:26:11;;;;;;;;;;;22.80;55.20;;;;;;5079668;28;1044;-29
2021/12/06 02:28:37;;;;;;;;;;;22.80;55.20;;;;;;5079816;28;944;-29
2021/12/06 02:31:04;;;;;;;;;;;22.80;55.00;;;;;;5080339;28;909;-29
2021/12/06 02:33:31;;;;;;;;;;;22.80;55.10;;;;;;5079547;28;1902;-29
2021/12/06 02:35:58;;;;;;;;;;;22.70;55.10;;;;;;5079630;28;980;-29
2021/12/06 02:38:26;;;;;;;;;;;22.80;55.00;;;;;;5080614;28;964;-30
2021/12/06 02:40:52;;;;;;;;;;;22.80;54.90;;;;;;5080311;28;939;-30
2021/12/06 02:43:19;;;;;;;;;;;22.80;54.90;;;;;;5079630;28;1015;-29
2021/12/06 02:45:46;;;;;;;;;;;22.80;54.90;;;;;;5079885;28;989;-29
2021/12/06 02:48:14;;;;;;;;;;;22.80;54.90;;;;;;5079867;28;976;-29
2021/12/06 02:50:42;;;;;;;;;;;22.80;54.70;;;;;;5079492;28;1008;-29
2021/12/06 02:53:09;;;;;;;;;;;22.80;54.80;;;;;;5079984;28;1007;-31
2021/12/06 02:55:38;;;;;;;;;;;22.90;54.80;;;;;;5079989;28;1909;-29
2021/12/06 02:58:14;;;;;;;;;;;22.80;54.70;;;;;;5079693;28;1010;-30
2021/12/06 03:00:41;;;;;;;;;;;22.80;55.00;;;;;;5080353;28;1018;-31
2021/12/06 03:03:08;;;;;;;;;;;22.70;55.00;;;;;;5080439;28;929;-30
2021/12/06 03:05:35;;;;;;;;;;;22.70;55.00;;;;;;5080179;28;936;-29
2021/12/06 03:08:02;;;;;;;;;;;22.70;55.10;;;;;;5080144;28;1068;-31
2021/12/06 03:10:29;;;;;;;;;;;22.70;55.20;;;;;;5080464;28;989;-31
2021/12/06 03:12:58;;;;;;;;;;;22.60;55.10;;;;;;5080255;28;1402;-30
2021/12/06 03:15:25;;;;;;;;;;;22.70;55.20;;;;;;5080107;28;1906;-31
2021/12/06 03:17:51;;;;;;;;;;;22.70;55.00;;;;;;5079863;28;996;-31
2021/12/06 03:20:18;;;;;;;;;;;22.70;55.00;;;;;;5079433;28;993;-29
2021/12/06 03:22:46;;;;;;;;;;;22.70;54.90;;;;;;5079055;28;1001;-29
2021/12/06 03:25:14;;;;;;;;;;;22.70;55.00;;;;;;5079710;28;921;-32
2021/12/06 03:27:40;;;;;;;;;;;22.70;55.20;;;;;;5078517;28;1016;-29
2021/12/06 03:30:10;;;;;;;;;;;22.70;55.20;;;;;;5078084;28;996;-29
2021/12/06 03:32:36;;;;;;;;;;;22.70;55.20;;;;;;5078050;28;1000;-27
2021/12/06 03:35:04;;;;;;;;;;;22.70;55.20;;;;;;5078641;28;1906;-29
2021/12/06 03:37:31;;;;;;;;;;;22.60;55.20;;;;;;5079467;28;945;-29
2021/12/06 03:39:58;;;;;;;;;;;22.70;55.20;;;;;;5080238;28;1000;-29
2021/12/06 03:42:33;;;;;;;;;;;22.70;55.10;;;;;;5080304;28;945;-31
2021/12/06 03:45:00;;;;;;;;;;;22.70;55.20;;;;;;5078573;28;999;-29
2021/12/06 03:47:30;;;;;;;;;;;22.60;55.20;;;;;;5078995;28;976;-29
2021/12/06 03:49:57;;;;;;;;;;;22.70;55.40;;;;;;5079501;28;1054;-29
2021/12/06 03:52:24;;;;;;;;;;;22.70;55.20;;;;;;5079337;28;941;-29
2021/12/06 03:54:51;;;;;;;;;;;22.60;55.30;;;;;;5079287;28;2009;-30
2021/12/06 03:57:18;;;;;;;;;;;22.60;55.40;;;;;;5078425;28;984;-32
2021/12/06 03:59:45;;;;;;;;;;;22.60;55.20;;;;;;5079260;28;973;-29
2021/12/06 04:02:12;;;;;;;;;;;22.70;55.20;;;;;;5077267;28;999;-29
2021/12/06 04:04:40;;;;;;;;;;;22.70;55.30;;;;;;5079072;28;989;-29
2021/12/06 04:07:08;;;;;;;;;;;22.60;55.30;;;;;;5079030;28;1042;-29
2021/12/06 04:09:35;;;;;;;;;;;22.60;55.30;;;;;;5079003;28;960;-31
2021/12/06 04:12:01;;;;;;;;;;;22.60;55.40;;;;;;5078576;28;934;-29
2021/12/06 04:14:28;;;;;;;;;;;22.60;55.40;;;;;;5078220;28;1960;-29
2021/12/06 04:16:55;;;;;;;;;;;22.60;55.30;;;;;;5077980;28;1143;-30
2021/12/06 04:19:22;;;;;;;;;;;22.60;55.40;;;;;;5077968;28;997;-29
2021/12/06 04:21:50;;;;;;;;;;;22.60;55.10;;;;;;5078212;28;944;-29
2021/12/06 04:24:17;;;;;;;;;;;22.60;55.40;;;;;;5078082;28;1032;-29
2021/12/06 04:26:44;;;;;;;;;;;22.60;55.10;;;;;;5077815;28;1023;-29
2021/12/06 04:29:11;;;;;;;;;;;22.60;55.10;;;;;;5078212;28;908;-31
2021/12/06 04:31:40;;;;;;;;;;;22.60;55.10;;;;;;5080748;28;1568;-31
2021/12/06 04:34:07;;;;;;;;;;;22.50;55.00;;;;;;5097274;28;1975;-29
2021/12/06 04:36:34;;;;;;;;;;;22.50;55.40;;;;;;5097768;28;1006;-29
2021/12/06 04:39:02;;;;;;;;;;;22.50;55.40;;;;;;5098024;28;1011;-29
2021/12/06 04:41:29;;;;;;;;;;;22.40;55.30;;;;;;5097383;28;889;-28
2021/12/06 04:43:56;;;;;;;;;;;22.40;55.60;;;;;;5098011;28;928;-29
2021/12/06 04:46:23;;;;;;;;;;;22.30;55.60;;;;;;5097329;28;1031;-29
2021/12/06 04:48:49;;;;;;;;;;;22.40;55.50;;;;;;5097126;28;1033;-31
2021/12/06 04:51:16;;;;;;;;;;;22.40;55.40;;;;;;5097417;28;1011;-29
2021/12/06 04:53:43;;;;;;;;;;;22.50;55.40;;;;;;5097550;28;976;-29
2021/12/06 04:56:15;;;;;;;;;;;22.50;55.40;;;;;;5097134;28;1987;-28
2021/12/06 04:58:46;;;;;;;;;;;22.50;55.60;;;;;;5097274;28;1015;-29
2021/12/06 05:01:14;;;;;;;;;;;22.50;55.50;;;;;;5097183;28;1015;-30
2021/12/06 05:03:41;;;;;;;;;;;22.60;55.50;;;;;;5098016;28;943;-29
2021/12/06 05:06:12;;;;;;;;;;;22.60;55.80;;;;;;5097884;28;1422;-31
2021/12/06 05:08:42;;;;;;;;;;;22.60;55.30;;;;;;5097632;28;1104;-29
2021/12/06 05:11:09;;;;;;;;;;;22.60;55.40;;;;;;5098265;28;916;-29
2021/12/06 05:13:38;;;;;;;;;;;22.60;55.50;;;;;;5097588;28;980;-30
2021/12/06 05:16:05;;;;;;;;;;;22.60;55.50;;;;;;5097486;28;1984;-29
2021/12/06 05:18:32;;;;;;;;;;;22.60;55.50;;;;;;5098324;28;993;-30
2021/12/06 05:20:59;;;;;;;;;;;22.60;55.50;;;;;;5097933;28;1003;-32
2021/12/06 05:23:25;;;;;;;;;;;22.60;56.00;;;;;;5097502;28;1015;-30
2021/12/06 05:25:52;;;;;;;;;;;22.80;55.70;;;;;;5097221;28;1003;-31
2021/12/06 05:28:22;;;;;;;;;;;22.70;55.60;;;;;;5097396;28;982;-30
2021/12/06 05:30:54;;;;;;;;;;;22.80;55.40;;;;;;5097840;28;1005;-31
2021/12/06 05:33:29;;;;;;;;;;;22.80;55.20;;;;;;5096521;28;960;-31
2021/12/06 05:35:56;;;;;;;;;;;22.90;55.10;;;;;;5097303;28;1905;-31
2021/12/06 05:38:23;;;;;;;;;;;22.90;55.00;;;;;;5097037;28;996;-31
2021/12/06 05:40:49;;;;;;;;;;;23.00;54.90;;;;;;5096520;28;928;-30
2021/12/06 05:43:16;;;;;;;;;;;23.20;55.00;;;;;;5096019;28;956;-29
2021/12/06 05:45:43;;;;;;;;;;;23.30;54.50;;;;;;5098744;28;951;-32
2021/12/06 05:48:11;;;;;;;;;;;23.30;54.20;;;;;;5100954;28;992;-32
2021/12/06 05:50:38;;;;;;;;;;;23.20;54.20;;;;;;5100372;28;917;-32
2021/12/06 05:53:04;;;;;;;;;;;23.30;54.50;;;;;;5100225;28;1021;-30
2021/12/06 05:55:31;;;;;;;;;;;23.30;54.30;;;;;;5099129;28;1913;-32
2021/12/06 05:58:00;;;;;;;;;;;23.40;54.30;;;;;;5099456;28;956;-30
2021/12/06 06:00:29;;;;;;;;;;;23.30;54.00;;;;;;5099983;28;1001;-31
2021/12/06 06:02:57;;;;;;;;;;;23.30;54.20;;;;;;5100142;28;936;-32
2021/12/06 06:05:25;;;;;;;;;;;23.30;54.20;;;;;;5099256;28;981;-31
2021/12/06 06:07:51;;;;;;;;;;;23.20;54.20;;;;;;5098167;28;1312;-32
2021/12/06 06:10:18;;;;;;;;;;;23.10;54.40;;;;;;5099620;28;931;-32
2021/12/06 06:12:45;;;;;;;;;;;23.00;54.50;;;;;;5098406;28;932;-31
2021/12/06 06:15:12;;;;;;;;;;;23.00;54.50;;;;;;5099038;28;1909;-31
2021/12/06 06:17:42;;;;;;;;;;;23.00;54.50;;;;;;5097936;28;995;-31
2021/12/06 06:20:11;;;;;;;;;;;22.90;54.60;;;;;;5097708;28;983;-32
2021/12/06 06:22:41;;;;;;;;;;;22.90;54.50;;;;;;5095831;28;919;-32
2021/12/06 06:25:08;;;;;;;;;;;22.90;54.60;;;;;;5096796;28;1437;-31
2021/12/06 06:27:35;;;;;;;;;;;22.90;54.60;;;;;;5096297;28;877;-31
2021/12/06 06:30:02;;;;;;;;;;;22.90;54.80;;;;;;5096752;28;1869;-31
2021/12/06 06:32:29;;;;;;;;;;;22.90;54.70;;;;;;5097177;28;964;-31
2021/12/06 06:34:55;;;;;;;;;;;22.90;54.70;;;;;;5097549;28;1965;-33
2021/12/06 06:37:22;;;;;;;;;;;22.90;54.80;;;;;;5096485;28;935;-32
2021/12/06 06:39:50;;;;;;;;;;;22.80;54.70;;;;;;5097627;28;955;-32
2021/12/06 06:42:17;;;;;;;;;;;22.80;54.70;;;;;;5096150;28;998;-31
2021/12/06 06:44:44;;;;;;;;;;;22.90;54.90;;;;;;5095498;28;879;-30
2021/12/06 06:47:11;;;;;;;;;;;22.90;54.90;;;;;;5096162;28;1004;-32
2021/12/06 06:49:37;;;;;;;;;;;22.90;54.80;;;;;;5096312;28;982;-31
2021/12/06 06:52:04;;;;;;;;;;;22.90;54.70;;;;;;5095604;28;1584;-31
2021/12/06 06:54:32;;;;;;;;;;;22.90;54.70;;;;;;5092757;28;1541;-32
2021/12/06 06:57:00;;;;;;;;;;;23.00;54.70;;;;;;5090713;28;1897;-32
2021/12/06 06:59:27;;;;;;;;;;;23.00;54.50;;;;;;5096583;28;1394;-30
2021/12/06 07:01:54;;;;;;;;;;;23.10;54.60;;;;;;5097982;28;1410;-33
2021/12/06 07:04:21;;;;;;;;;;;23.00;54.50;;;;;;5095920;28;1454;-32
2021/12/06 07:06:49;;;;;;;;;;;22.90;54.50;;;;;;5097945;28;1350;-30
2021/12/06 07:09:16;;;;;;;;;;;23.00;54.60;;;;;;5093783;28;1767;-32
2021/12/06 07:11:45;;;;;;;;;;;22.90;54.50;;;;;;5097872;28;1366;-31
2021/12/06 07:14:13;;;;;;;;;;;22.90;54.60;;;;;;5097002;28;1001;-31
2021/12/06 07:16:40;;;;;;;;;;;22.90;54.60;;;;;;5097650;28;1982;-31
2021/12/06 07:19:07;;;;;;;;;;;22.80;54.70;;;;;;5094877;28;941;-33
2021/12/06 07:21:34;;;;;;;;;;;22.90;54.70;;;;;;5096119;28;849;-33
2021/12/06 07:24:01;;;;;;;;;;;22.90;54.70;;;;;;5095713;28;1006;-33
2021/12/06 07:26:28;;;;;;;;;;;22.90;54.60;;;;;;5097031;28;1225;-34
2021/12/06 07:28:55;;;;;;;;;;;23.00;54.40;;;;;;5098362;28;1046;-31
2021/12/06 07:31:23;;;;;;;;;;;22.90;54.50;;;;;;5097464;28;1050;-31
2021/12/06 07:33:51;;;;;;;;;;;22.90;55.80;;;;;;5096388;28;1000;-31
2021/12/06 07:36:18;;;;;;;;;;;22.80;54.80;;;;;;5096151;28;1973;-31
2021/12/06 07:38:45;;;;;;;;;;;22.80;54.80;;;;;;5095722;28;999;-31
2021/12/06 07:41:13;;;;;;;;;;;22.80;54.70;;;;;;5093186;28;989;-32
2021/12/06 07:43:40;;;;;;;;;;;22.80;54.90;;;;;;5095022;28;1016;-31
2021/12/06 07:46:07;;;;;;;;;;;22.80;54.90;;;;;;5094303;28;1011;-32
2021/12/06 07:48:36;;;;;;;;;;;22.70;55.00;;;;;;5094555;28;1783;-32
2021/12/06 07:51:05;;;;;;;;;;;22.70;54.90;;;;;;5094331;28;1647;-32
2021/12/06 07:53:32;;;;;;;;;;;22.70;54.90;;;;;;5094669;28;955;-32
2021/12/06 07:56:00;;;;;;;;;;;22.70;54.70;;;;;;5092276;28;1910;-31
2021/12/06 07:58:26;;;;;;;;;;;22.70;54.90;;;;;;5090207;28;1019;-30
2021/12/06 08:00:55;;;;;;;;;;;22.80;54.90;;;;;;5094123;28;964;-32
2021/12/06 08:03:23;;;;;;;;;;;22.80;54.90;;;;;;5095276;28;1015;-34
2021/12/06 08:05:52;;;;;;;;;;;22.80;54.90;;;;;;5094116;28;1138;-33
2021/12/06 08:08:22;;;;;;;;;;;22.70;54.90;;;;;;5093035;28;1020;-31
2021/12/06 08:10:51;;;;;;;;;;;22.80;54.80;;;;;;5095062;28;1004;-31
2021/12/06 08:13:19;;;;;;;;;;;22.80;54.70;;;;;;5095497;28;906;-30
2021/12/06 08:15:46;;;;;;;;;;;22.70;55.70;;;;;;5093049;28;1983;-32
2021/12/06 08:18:13;;;;;;;;;;;22.70;54.80;;;;;;5091424;28;968;-31
2021/12/06 08:20:41;;;;;;;;;;;22.70;54.80;;;;;;5094308;28;996;-31
2021/12/06 08:23:09;;;;;;;;;;;22.70;54.80;;;;;;5094788;28;1882;-31
2021/12/06 08:25:36;;;;;;;;;;;22.70;54.70;;;;;;5092256;28;1126;-32
2021/12/06 08:28:03;;;;;;;;;;;22.70;54.90;;;;;;5089703;28;943;-31
2021/12/06 08:30:30;;;;;;;;;;;22.70;54.80;;;;;;5093921;28;1005;-34
2021/12/06 08:32:58;;;;;;;;;;;22.60;54.80;;;;;;5093418;28;1008;-32
2021/12/06 08:35:26;;;;;;;;;;;22.70;54.80;;;;;;5091860;28;1986;-31
2021/12/06 08:37:53;;;;;;;;;;;22.70;54.90;;;;;;5087332;28;964;-30
2021/12/06 08:40:21;;;;;;;;;;;22.70;54.80;;;;;;5094679;28;1043;-32
2021/12/06 08:42:49;;;;;;;;;;;22.70;54.70;;;;;;5095363;28;1019;-32
2021/12/06 08:45:15;;;;;;;;;;;22.70;54.80;;;;;;5094916;28;1000;-32
2021/12/06 08:47:42;;;;;;;;;;;22.60;54.80;;;;;;5087983;28;1058;-33
2021/12/06 08:50:12;;;;;;;;;;;22.60;54.80;;;;;;5093355;28;960;-33
2021/12/06 08:52:38;;;;;;;;;;;22.60;54.80;;;;;;5094653;28;1152;-32
2021/12/06 08:55:07;;;;;;;;;;;22.60;54.80;;;;;;5094806;28;1027;-33
2021/12/06 08:57:35;;;;;;;;;;;22.60;54.80;;;;;;5087739;28;1971;-33
2021/12/06 09:00:02;;;;;;;;;;;22.60;54.90;;;;;;5095861;28;1016;-31
2021/12/06 09:02:29;;;;;;;;;;;22.70;54.80;;;;;;5094624;28;987;-32
2021/12/06 09:04:56;;;;;;;;;;;22.60;54.70;;;;;;5094997;28;861;-33
2021/12/06 09:07:24;;;;;;;;;;;22.70;54.70;;;;;;5090049;28;1162;-32
2021/12/06 09:09:55;;;;;;;;;;;22.70;54.70;;;;;;5094596;28;1302;-31
2021/12/06 09:12:24;;;;;;;;;;;22.70;54.60;;;;;;5092969;28;925;-33
2021/12/06 09:14:53;;;;;;;;;;;22.60;54.80;;;;;;5093784;28;962;-32
2021/12/06 09:17:19;;;;;;;;;;;22.60;54.80;;;;;;5086246;28;1989;-32
2021/12/06 09:19:46;;;;;;;;;;;22.60;54.80;;;;;;5092886;28;1005;-32
2021/12/06 09:22:13;;;;;;;;;;;22.60;54.80;;;;;;5093094;28;995;-31
2021/12/06 09:24:40;;;;;;;;;;;22.60;54.90;;;;;;5091854;28;980;-32
2021/12/06 09:27:07;;;;;;;;;;;22.60;54.60;;;;;;5087083;28;917;-32
2021/12/06 09:29:36;;;;;;;;;;;22.70;54.70;;;;;;5092679;28;988;-33
2021/12/06 09:32:05;;;;;;;;;;;22.60;54.90;;;;;;5093516;28;923;-32
2021/12/06 09:34:32;;;;;;;;;;;22.70;54.70;;;;;;5093243;28;999;-31
2021/12/06 09:36:59;;;;;;;;;;;22.60;54.60;;;;;;5084733;28;1989;-31
2021/12/06 09:39:26;;;;;;;;;;;22.60;54.80;;;;;;5093591;28;1012;-34
2021/12/06 09:41:53;;;;;;;;;;;22.60;54.80;;;;;;5093088;28;1023;-30
2021/12/06 09:44:20;;;;;;;;;;;22.60;55.00;;;;;;5093167;28;1688;-32
2021/12/06 09:46:47;;;;;;;;;;;22.70;54.80;;;;;;5092120;28;932;-32
2021/12/06 09:49:18;;;;;;;;;;;22.60;54.60;;;;;;5090876;28;966;-31
2021/12/06 09:51:50;;;;;;;;;;;22.60;54.80;;;;;;5093771;28;877;-31
2021/12/06 09:54:17;;;;;;;;;;;22.60;55.90;;;;;;5093847;28;943;-31
2021/12/06 09:56:44;;;;;;;;;;;22.60;54.70;;;;;;5089364;28;1957;-31
2021/12/06 09:59:13;;;;;;;;;;;22.60;54.70;;;;;;5092935;28;983;-33
2021/12/06 10:01:41;;;;;;;;;;;22.50;54.80;;;;;;5095337;28;923;-33
2021/12/06 10:04:09;;;;;;;;;;;22.50;54.70;;;;;;5094516;28;940;-31
2021/12/06 10:06:38;;;;;;;;;;;22.60;54.50;;;;;;5090089;28;1141;-31
2021/12/06 10:09:06;;;;;;;;;;;22.50;54.70;;;;;;5094007;28;954;-31
2021/12/06 10:11:33;;;;;;;;;;;22.50;54.70;;;;;;5094147;28;1007;-32
2021/12/06 10:14:00;;;;;;;;;;;22.50;54.70;;;;;;5093883;28;988;-31
2021/12/06 10:16:27;;;;;;;;;;;22.50;54.70;;;;;;5088365;28;1897;-31
2021/12/06 10:18:54;;;;;;;;;;;22.50;54.60;;;;;;5091960;28;1071;-33
2021/12/06 10:21:23;;;;;;;;;;;22.50;54.50;;;;;;5093114;28;1098;-32
2021/12/06 10:23:52;;;;;;;;;;;22.60;54.60;;;;;;5091682;28;1006;-32
2021/12/06 10:26:22;;;;;;;;;;;22.50;54.50;;;;;;5086953;28;1015;-34
2021/12/06 10:28:48;;;;;;;;;;;22.50;54.40;;;;;;5089503;28;1000;-31
2021/12/06 10:31:16;;;;;;;;;;;22.50;54.60;;;;;;5091614;28;868;-31
2021/12/06 10:33:45;;;;;;;;;;;22.50;54.50;;;;;;5095410;28;865;-32
2021/12/06 10:36:13;;;;;;;;;;;22.40;54.60;;;;;;5092967;28;1910;-32
2021/12/06 10:38:41;;;;;;;;;;;22.40;54.50;;;;;;5093499;28;891;-32
2021/12/06 10:41:11;;;;;;;;;;;22.40;54.40;;;;;;5096459;28;927;-32
2021/12/06 10:43:38;;;;;;;;;;;22.50;54.60;;;;;;5096858;28;948;-32
2021/12/06 10:46:05;;;;;;;;;;;22.50;54.50;;;;;;5094283;28;976;-31
2021/12/06 10:48:33;;;;;;;;;;;22.50;54.50;;;;;;5091919;28;1000;-32
2021/12/06 10:51:01;;;;;;;;;;;22.50;54.40;;;;;;5095691;28;950;-33
2021/12/06 10:53:31;;;;;;;;;;;22.50;54.30;;;;;;5096228;28;1008;-33
2021/12/06 10:55:58;;;;;;;;;;;22.50;54.30;;;;;;5093141;28;970;-33
2021/12/06 10:58:28;;;;;;;;;;;22.60;54.40;;;;;;5091651;28;1910;-32
2021/12/06 11:00:56;;;;;;;;;;;22.50;54.30;;;;;;5096587;28;1002;-33
2021/12/06 11:03:25;;;;;;;;;;;22.40;54.40;;;;;;5096054;28;1004;-32
2021/12/06 11:05:54;;;;;;;;;;;22.40;54.30;;;;;;5094678;28;921;-31
2021/12/06 11:08:21;;;;;;;;;;;22.50;54.50;;;;;;5094850;28;1007;-32
2021/12/06 11:10:50;;;;;;;;;;;22.50;54.40;;;;;;5096444;28;931;-33
2021/12/06 11:13:20;;;;;;;;;;;22.50;54.30;;;;;;5095539;28;1005;-32
2021/12/06 11:16:09;;;;;;;;;;;22.40;54.60;;;;;;5094016;28;1006;-32
2021/12/06 11:18:38;;;;;;;;;;;22.40;54.40;;;;;;5091929;28;1921;-30
2021/12/06 11:21:06;;;;;;;;;;;22.40;54.40;;;;;;5096993;28;1043;-33
2021/12/06 11:23:33;;;;;;;;;;;22.30;54.40;;;;;;5096887;28;996;-34
2021/12/06 11:26:01;;;;;;;;;;;22.40;54.50;;;;;;5093154;28;1019;-32
2021/12/06 11:28:31;;;;;;;;;;;22.50;54.30;;;;;;5093582;28;1162;-29
2021/12/06 11:30:59;;;;;;;;;;;22.60;54.10;;;;;;5095866;28;995;-31
2021/12/06 11:33:28;;;;;;;;;;;22.60;53.90;;;;;;5096052;28;880;-31
2021/12/06 11:35:55;;;;;;;;;;;22.70;53.90;;;;;;5094566;28;1007;-31
2021/12/06 11:38:21;;;;;;;;;;;22.70;54.00;;;;;;5093404;28;1906;-29
2021/12/06 11:40:48;;;;;;;;;;;22.60;53.90;;;;;;5095112;28;1000;-30
2021/12/06 11:43:17;;;;;;;;;;;22.70;53.90;;;;;;5094275;28;970;-29
2021/12/06 11:45:46;;;;;;;;;;;22.60;54.00;;;;;;5092170;28;1027;-31
2021/12/06 11:48:14;;;;;;;;;;;22.60;54.10;;;;;;5091394;28;1016;-30
2021/12/06 11:50:43;;;;;;;;;;;22.60;54.10;;;;;;5093928;28;1018;-30
2021/12/06 11:53:10;;;;;;;;;;;22.70;54.10;;;;;;5096262;28;980;-29
2021/12/06 11:55:38;;;;;;;;;;;22.70;54.00;;;;;;5094490;28;1034;-31
2021/12/06 11:58:05;;;;;;;;;;;22.70;54.10;;;;;;5091328;28;1883;-32
2021/12/06 12:00:32;;;;;;;;;;;22.70;54.10;;;;;;5094908;28;1120;-29
2021/12/06 12:03:00;;;;;;;;;;;22.70;54.00;;;;;;5092955;28;1002;-29
2021/12/06 12:05:30;;;;;;;;;;;22.70;54.00;;;;;;5093501;28;987;-30
2021/12/06 12:08:06;;;;;;;;;;;22.70;53.90;;;;;;5087652;28;1110;-30
2021/12/06 12:10:41;;;;;;;;;;;22.70;53.90;;;;;;5093639;28;1873;-30
2021/12/06 12:13:10;;;;;;;;;;;22.60;53.90;;;;;;5094387;28;944;-30
2021/12/06 12:15:37;;;;;;;;;;;22.60;54.10;;;;;;5092649;28;1029;-30
2021/12/06 12:18:04;;;;;;;;;;;22.60;54.20;;;;;;5089214;28;1910;-29
2021/12/06 12:20:31;;;;;;;;;;;22.60;54.10;;;;;;5093360;28;998;-31
2021/12/06 12:23:02;;;;;;;;;;;22.60;54.10;;;;;;5092206;28;1193;-31
2021/12/06 12:25:33;;;;;;;;;;;22.60;54.10;;;;;;5092417;28;1095;-32
2021/12/06 12:28:12;;;;;;;;;;;22.60;54.10;;;;;;5090048;28;1004;-29
2021/12/06 12:30:39;;;;;;;;;;;22.60;54.20;;;;;;5096111;28;928;-31
2021/12/06 12:33:08;;;;;;;;;;;22.60;54.20;;;;;;5096064;28;947;-30
2021/12/06 12:35:36;;;;;;;;;;;22.60;54.00;;;;;;5094839;28;1049;-29
2021/12/06 12:38:03;;;;;;;;;;;22.60;54.20;;;;;;5090185;28;1906;-29
2021/12/06 12:40:40;;;;;;;;;;;22.70;54.30;;;;;;5095215;28;1006;-31
2021/12/06 12:43:10;;;;;;;;;;;22.70;54.30;;;;;;5094304;28;1787;-32
2021/12/06 12:45:38;;;;;;;;;;;22.70;54.10;;;;;;5093689;28;1083;-30
2021/12/06 12:48:05;;;;;;;;;;;22.70;54.10;;;;;;5091443;28;932;-29
2021/12/06 12:50:32;;;;;;;;;;;22.60;54.20;;;;;;5093066;28;1131;-30
2021/12/06 12:53:05;;;;;;;;;;;22.60;54.10;;;;;;5094664;28;928;-31
2021/12/06 12:55:34;;;;;;;;;;;22.60;54.00;;;;;;5092201;28;1006;-30
2021/12/06 12:58:09;;;;;;;;;;;22.70;54.20;;;;;;5088455;28;1910;-30
2021/12/06 13:00:44;;;;;;;;;;;22.70;54.00;;;;;;5093808;28;939;-30
2021/12/06 13:03:26;;;;;;;;;;;22.60;53.90;;;;;;5093170;28;1234;-30
2021/12/06 13:06:12;;;;;;;;;;;22.70;53.90;;;;;;5091438;28;1523;-31
2021/12/06 13:08:38;;;;;;;;;;;22.70;53.80;;;;;;5090829;28;1189;-29
2021/12/06 13:11:05;;;;;;;;;;;22.60;54.00;;;;;;5093360;28;1012;-29
2021/12/06 13:13:40;;;;;;;;;;;22.60;54.10;;;;;;5093335;28;1002;-29
2021/12/06 13:16:11;;;;;;;;;;;22.60;54.20;;;;;;5091270;28;1015;-29
2021/12/06 13:18:54;;;;;;;;;;;22.60;54.20;;;;;;5090340;28;1906;-30
2021/12/06 13:21:28;;;;;;;;;;;22.70;54.20;;;;;;5092866;28;995;-30
2021/12/06 13:24:04;;;;;;;;;;;22.70;54.20;;;;;;5092456;28;919;-29
2021/12/06 13:26:34;;;;;;;;;;;22.70;54.30;;;;;;5088465;28;972;-30
2021/12/06 13:29:04;;;;;;;;;;;22.60;54.30;;;;;;5091648;28;876;-31
2021/12/06 13:31:32;;;;;;;;;;;22.60;54.30;;;;;;5093807;28;901;-31
2021/12/06 13:33:58;;;;;;;;;;;22.60;54.50;;;;;;5093987;28;988;-30
2021/12/06 13:36:40;;;;;;;;;;;22.50;54.40;;;;;;5092430;28;940;-29
2021/12/06 13:39:14;;;;;;;;;;;22.50;54.50;;;;;;5092885;28;1975;-30
2021/12/06 13:41:46;;;;;;;;;;;22.60;54.40;;;;;;5094199;28;857;-31
2021/12/06 13:44:21;;;;;;;;;;;22.50;54.30;;;;;;5095070;28;979;-29
2021/12/06 13:46:51;;;;;;;;;;;22.60;54.50;;;;;;5090247;28;1884;-32
2021/12/06 13:49:19;;;;;;;;;;;22.50;54.40;;;;;;5091611;28;975;-30
2021/12/06 13:51:53;;;;;;;;;;;22.60;54.30;;;;;;5093712;28;935;-31
2021/12/06 13:54:26;;;;;;;;;;;22.60;54.40;;;;;;5093489;28;993;-31
2021/12/06 13:56:54;;;;;;;;;;;22.60;54.30;;;;;;5088629;28;849;-30
2021/12/06 13:59:24;;;;;;;;;;;22.60;54.20;;;;;;5092403;28;1983;-30
2021/12/06 14:01:51;;;;;;;;;;;22.60;54.20;;;;;;5094501;28;1019;-31
2021/12/06 14:04:19;;;;;;;;;;;22.60;54.00;;;;;;5094200;28;1022;-30
2021/12/06 14:06:48;;;;;;;;;;;22.60;54.10;;;;;;5091666;28;1275;-30
2021/12/06 14:09:15;;;;;;;;;;;22.60;54.30;;;;;;5097574;28;880;-31
2021/12/06 14:11:42;;;;;;;;;;;22.60;54.30;;;;;;5099161;28;1005;-31
2021/12/06 14:14:12;;;;;;;;;;;22.60;54.40;;;;;;5097222;28;1133;-29
2021/12/06 14:16:41;;;;;;;;;;;22.60;54.40;;;;;;5093993;28;934;-31
2021/12/06 14:19:09;;;;;;;;;;;22.60;54.50;;;;;;5095352;28;1984;-30
2021/12/06 14:21:36;;;;;;;;;;;22.60;54.50;;;;;;5095207;28;1012;-31
2021/12/06 14:24:03;;;;;;;;;;;22.60;54.70;;;;;;5096276;28;1042;-31
2021/12/06 14:26:32;;;;;;;;;;;22.60;54.60;;;;;;5092444;28;959;-30
2021/12/06 14:28:59;;;;;;;;;;;22.60;54.60;;;;;;5094171;28;940;-29
2021/12/06 14:31:26;;;;;;;;;;;22.60;54.50;;;;;;5097064;28;1004;-30
2021/12/06 14:33:54;;;;;;;;;;;22.60;54.60;;;;;;5096208;28;1003;-30
2021/12/06 14:36:22;;;;;;;;;;;22.60;54.50;;;;;;5091441;28;1011;-32
2021/12/06 14:38:49;;;;;;;;;;;22.60;54.50;;;;;;5096304;28;1980;-31
2021/12/06 14:41:16;;;;;;;;;;;22.60;54.60;;;;;;5098180;28;1038;-33
2021/12/06 14:43:44;;;;;;;;;;;22.60;54.60;;;;;;5098593;28;994;-31
2021/12/06 14:46:11;;;;;;;;;;;22.60;54.60;;;;;;5094265;28;987;-31
2021/12/06 14:48:40;;;;;;;;;;;22.60;54.50;;;;;;5091870;28;999;-31
2021/12/06 14:51:10;;;;;;;;;;;22.60;54.50;;;;;;5096719;28;896;-32